Time,TemperatureF,DewpointF,PressureIn,WindDirection,WindDirectionDegrees,WindSpeedMPH,WindSpeedGustMPH,Humidity,HourlyPrecipIn,Conditions,Clouds,dailyrainin,SoftwareType,DateUTC
2013-01-31 00:00:00,34.3,30.0,30.21,South,180,0.0,0.0,84,0.00,CLR,,0.00,WeatherDisplay:10.37,2013-01-31 08:00:00,
2013-01-31 00:05:00,34.3,30.0,30.21,South,180,0.0,0.0,84,0.00,CLR,,0.00,WeatherDisplay:10.37,2013-01-31 08:05:00,
2013-01-31 00:10:00,34.3,30.0,30.22,South,180,0.0,0.0,84,0.00,CLR,,0.00,WeatherDisplay:10.37,2013-01-31 08:10:00,
2013-01-31 00:15:00,34.3,30.0,30.22,South,180,0.0,0.0,84,0.00,CLR,,0.00,WeatherDisplay:10.37,2013-01-31 08:15:00,
2013-01-31 00:20:00,34.3,30.0,30.22,South,180,0.0,0.0,84,0.00,CLR,,0.00,WeatherDisplay:10.37,2013-01-31 08:20:00,
2013-01-31 00:25:00,34.2,29.8,30.22,South,180,0.0,0.0,84,0.00,CLR,,0.00,WeatherDisplay:10.37,2013-01-31 08:25:00,
2013-01-31 00:30:00,34.2,29.8,30.21,South,180,0.0,0.0,84,0.00,CLR,,0.00,WeatherDisplay:10.37,2013-01-31 08:30:00,
2013-01-31 00:40:00,34.0,29.9,30.21,South,180,0.0,0.0,85,0.00,CLR,,0.00,WeatherDisplay:10.37,2013-01-31 08:40:00,
2013-01-31 00:50:00,34.0,29.9,30.21,South,180,0.0,0.0,85,0.00,CLR,,0.00,WeatherDisplay:10.37,2013-01-31 08:50:00,
2013-01-31 01:00:00,34.2,30.1,30.22,South,180,0.0,0.0,85,0.00,CLR,,0.00,WeatherDisplay:10.37,2013-01-31 09:00:00,
2013-01-31 01:05:00,34.2,30.1,30.22,South,180,0.0,0.0,85,0.00,CLR,,0.00,WeatherDisplay:10.37,2013-01-31 09:05:00,
2013-01-31 01:10:00,34.1,30.1,30.22,South,180,0.0,0.0,85,0.00,CLR,,0.00,WeatherDisplay:10.37,2013-01-31 09:10:00,
2013-01-31 01:20:00,34.2,30.1,30.22,South,180,0.0,0.0,85,0.00,CLR,,0.00,WeatherDisplay:10.37,2013-01-31 09:20:00,
2013-01-31 01:30:00,34.2,30.1,30.22,South,180,0.0,0.0,85,0.00,CLR,,0.00,WeatherDisplay:10.37,2013-01-31 09:30:00,
2013-01-31 01:40:00,34.3,30.3,30.22,South,180,0.0,0.0,85,0.00,CLR,,0.00,WeatherDisplay:10.37,2013-01-31 09:40:00,
2013-01-31 01:50:00,34.3,30.3,30.22,South,180,0.0,0.0,85,0.00,CLR,,0.00,WeatherDisplay:10.37,2013-01-31 09:50:00,
2013-01-31 02:00:00,34.3,30.3,30.22,South,180,0.0,0.0,85,0.00,CLR,,0.00,WeatherDisplay:10.37,2013-01-31 10:00:00,
2013-01-31 02:05:00,34.2,30.1,30.22,South,180,0.0,0.0,85,0.00,CLR,,0.00,WeatherDisplay:10.37,2013-01-31 10:05:00,
2013-01-31 02:10:00,34.0,29.9,30.22,South,180,0.0,0.0,85,0.00,CLR,,0.00,WeatherDisplay:10.37,2013-01-31 10:10:00,
2013-01-31 02:20:00,34.0,29.9,30.22,South,180,0.0,0.0,85,0.00,CLR,,0.00,WeatherDisplay:10.37,2013-01-31 10:20:00,
2013-01-31 02:30:00,33.8,29.8,30.22,South,180,0.0,0.0,85,0.00,CLR,,0.00,WeatherDisplay:10.37,2013-01-31 10:30:00,
2013-01-31 02:40:00,33.6,29.6,30.22,South,180,0.0,0.0,85,0.00,CLR,,0.00,WeatherDisplay:10.37,2013-01-31 10:40:00,
2013-01-31 02:50:00,33.6,29.6,30.23,South,180,0.0,0.0,85,0.00,CLR,,0.00,WeatherDisplay:10.37,2013-01-31 10:50:00,
2013-01-31 03:00:00,33.6,29.6,30.22,South,180,0.0,0.0,85,0.00,CLR,,0.00,WeatherDisplay:10.37,2013-01-31 11:00:00,
2013-01-31 03:05:00,33.4,29.4,30.22,South,180,0.0,0.0,85,0.00,CLR,,0.00,WeatherDisplay:10.37,2013-01-31 11:05:00,
2013-01-31 03:10:00,33.6,29.5,30.22,South,180,0.0,0.0,85,0.00,CLR,,0.00,WeatherDisplay:10.37,2013-01-31 11:10:00,
2013-01-31 03:20:00,33.4,29.4,30.23,South,180,0.0,0.0,85,0.00,CLR,,0.00,WeatherDisplay:10.37,2013-01-31 11:20:00,
2013-01-31 03:30:00,33.4,29.4,30.23,South,180,0.0,0.0,85,0.00,CLR,,0.00,WeatherDisplay:10.37,2013-01-31 11:30:00,
2013-01-31 03:40:00,33.4,29.4,30.23,South,180,0.0,0.0,85,0.00,CLR,,0.00,WeatherDisplay:10.37,2013-01-31 11:40:00,
2013-01-31 03:50:00,33.4,29.4,30.22,South,180,0.0,0.0,85,0.00,CLR,,0.00,WeatherDisplay:10.37,2013-01-31 11:50:00,
2013-01-31 04:00:00,33.4,29.4,30.22,South,180,0.0,0.0,85,0.00,CLR,,0.00,WeatherDisplay:10.37,2013-01-31 12:00:00,
2013-01-31 04:05:00,33.4,29.4,30.23,South,180,0.0,0.0,85,0.00,CLR,,0.00,WeatherDisplay:10.37,2013-01-31 12:05:00,
2013-01-31 04:10:00,33.4,29.4,30.23,South,180,0.0,0.0,85,0.00,CLR,,0.00,WeatherDisplay:10.37,2013-01-31 12:10:00,
2013-01-31 04:20:00,33.4,29.4,30.23,South,180,0.0,0.0,85,0.00,CLR,,0.00,WeatherDisplay:10.37,2013-01-31 12:20:00,
2013-01-31 04:30:00,33.6,29.6,30.23,South,180,0.0,0.0,85,0.00,CLR,,0.00,WeatherDisplay:10.37,2013-01-31 12:30:00,
2013-01-31 04:40:00,33.4,29.4,30.23,South,180,0.0,0.0,85,0.00,CLR,,0.00,WeatherDisplay:10.37,2013-01-31 12:40:00,
2013-01-31 04:50:00,33.4,29.4,30.23,South,180,0.0,0.0,85,0.00,CLR,,0.00,WeatherDisplay:10.37,2013-01-31 12:50:00,
2013-01-31 05:00:00,33.6,29.6,30.23,South,180,0.0,0.0,85,0.00,CLR,,0.00,WeatherDisplay:10.37,2013-01-31 13:00:00,
2013-01-31 05:05:00,33.6,29.6,30.23,South,180,0.0,0.0,85,0.00,CLR,,0.00,WeatherDisplay:10.37,2013-01-31 13:05:00,
2013-01-31 05:10:00,33.6,29.6,30.23,South,180,0.0,0.0,85,0.00,CLR,,0.00,WeatherDisplay:10.37,2013-01-31 13:10:00,
2013-01-31 05:20:00,33.6,29.6,30.24,South,180,0.0,0.0,85,0.00,CLR,,0.00,WeatherDisplay:10.37,2013-01-31 13:20:00,
2013-01-31 05:30:00,33.6,29.6,30.23,South,180,0.0,0.0,85,0.00,CLR,,0.00,WeatherDisplay:10.37,2013-01-31 13:30:00,
2013-01-31 05:40:00,33.6,29.6,30.23,South,180,0.0,0.0,85,0.00,CLR,,0.00,WeatherDisplay:10.37,2013-01-31 13:40:00,
2013-01-31 05:50:00,33.8,29.7,30.23,South,180,0.0,0.0,85,0.00,CLR,,0.00,WeatherDisplay:10.37,2013-01-31 13:50:00,
2013-01-31 06:00:00,33.6,29.6,30.22,South,180,0.0,0.0,85,0.00,CLR,,0.00,WeatherDisplay:10.37,2013-01-31 14:00:00,
2013-01-31 06:05:00,33.8,29.8,30.22,South,180,0.0,0.0,85,0.00,CLR,,0.00,WeatherDisplay:10.37,2013-01-31 14:05:00,
2013-01-31 06:10:00,33.6,29.6,30.23,South,180,0.0,0.0,85,0.00,CLR,,0.00,WeatherDisplay:10.37,2013-01-31 14:10:00,
2013-01-31 06:20:00,33.6,29.6,30.22,SE,129,1.0,1.0,85,0.00,CLR,,0.00,WeatherDisplay:10.37,2013-01-31 14:20:00,
2013-01-31 06:30:00,33.8,29.8,30.23,ESE,112,6.0,6.0,85,0.00,CLR,,0.00,WeatherDisplay:10.37,2013-01-31 14:30:00,
2013-01-31 06:40:00,33.8,30.1,30.22,ESE,112,0.0,0.0,86,0.00,CLR,,0.00,WeatherDisplay:10.37,2013-01-31 14:40:00,
2013-01-31 06:50:00,33.8,30.1,30.23,ESE,112,0.0,0.0,86,0.00,CLR,,0.00,WeatherDisplay:10.37,2013-01-31 14:50:00,
2013-01-31 07:00:00,34.0,30.2,30.22,ESE,112,0.0,0.0,86,0.00,CLR,,0.00,WeatherDisplay:10.37,2013-01-31 15:00:00,
2013-01-31 07:05:00,34.0,30.2,30.22,ESE,112,0.0,0.0,86,0.00,CLR,,0.00,WeatherDisplay:10.37,2013-01-31 15:05:00,
2013-01-31 07:10:00,33.8,30.1,30.23,ESE,112,0.0,0.0,86,0.00,CLR,,0.00,WeatherDisplay:10.37,2013-01-31 15:10:00,
2013-01-31 07:20:00,33.6,29.9,30.22,ESE,112,0.0,0.0,86,0.00,CLR,,0.00,WeatherDisplay:10.37,2013-01-31 15:20:00,
2013-01-31 07:30:00,33.8,30.1,30.22,ESE,112,0.0,0.0,86,0.00,CLR,,0.00,WeatherDisplay:10.37,2013-01-31 15:30:00,
2013-01-31 07:40:00,34.0,30.2,30.22,ESE,112,0.0,6.0,86,0.00,CLR,,0.00,WeatherDisplay:10.37,2013-01-31 15:40:00,
2013-01-31 07:50:00,34.2,30.4,30.23,ESE,112,0.0,0.0,86,0.00,CLR,,0.00,WeatherDisplay:10.37,2013-01-31 15:50:00,
2013-01-31 08:00:00,34.3,30.6,30.23,ESE,112,0.0,0.0,86,0.00,CLR,,0.00,WeatherDisplay:10.37,2013-01-31 16:00:00,
2013-01-31 08:05:00,34.3,30.6,30.23,ESE,112,0.0,0.0,86,0.00,CLR,,0.00,WeatherDisplay:10.37,2013-01-31 16:05:00,
2013-01-31 08:10:00,34.3,30.6,30.24,ESE,112,0.0,0.0,86,0.00,CLR,,0.00,WeatherDisplay:10.37,2013-01-31 16:10:00,
2013-01-31 08:20:00,34.3,30.6,30.23,ESE,112,0.0,0.0,86,0.00,CLR,,0.00,WeatherDisplay:10.37,2013-01-31 16:20:00,
2013-01-31 08:30:00,34.5,30.8,30.24,ESE,112,0.0,0.0,86,0.00,CLR,,0.00,WeatherDisplay:10.37,2013-01-31 16:30:00,
2013-01-31 08:40:00,34.8,31.1,30.24,ESE,112,0.0,0.0,86,0.00,CLR,,0.00,WeatherDisplay:10.37,2013-01-31 16:40:00,
2013-01-31 08:50:00,35.2,31.5,30.24,ESE,112,0.0,0.0,86,0.00,CLR,,0.00,WeatherDisplay:10.37,2013-01-31 16:50:00,
2013-01-31 09:00:00,35.4,31.6,30.24,ESE,112,0.0,0.0,86,0.00,CLR,,0.00,WeatherDisplay:10.37,2013-01-31 17:00:00,
2013-01-31 09:05:00,35.4,31.6,30.23,ESE,112,0.0,0.0,86,0.00,CLR,,0.00,WeatherDisplay:10.37,2013-01-31 17:05:00,
2013-01-31 09:10:00,35.6,31.9,30.24,ESE,112,0.0,0.0,86,0.00,CLR,,0.00,WeatherDisplay:10.37,2013-01-31 17:10:00,
2013-01-31 09:20:00,35.8,32.0,30.24,ESE,112,0.0,0.0,86,0.00,CLR,,0.00,WeatherDisplay:10.37,2013-01-31 17:20:00,
2013-01-31 09:30:00,36.3,32.5,30.24,ESE,112,0.0,0.0,86,0.00,CLR,,0.00,WeatherDisplay:10.37,2013-01-31 17:30:00,
2013-01-31 09:40:00,36.8,33.0,30.23,ESE,112,0.0,0.0,86,0.00,CLR,,0.00,WeatherDisplay:10.37,2013-01-31 17:40:00,
2013-01-31 09:50:00,37.2,33.4,30.24,ESE,112,0.0,0.0,86,0.00,CLR,,0.00,WeatherDisplay:10.37,2013-01-31 17:50:00,
2013-01-31 09:55:00,37.4,33.6,30.24,ESE,112,0.0,0.0,86,0.00,CLR,,0.00,WeatherDisplay:10.37,2013-01-31 17:55:00,
2013-01-31 10:05:00,37.8,33.9,30.23,ESE,112,0.0,0.0,86,0.00,CLR,,0.00,WeatherDisplay:10.37,2013-01-31 18:05:00,
2013-01-31 10:10:00,37.8,33.9,30.24,ESE,112,0.0,0.0,86,0.00,CLR,,0.00,WeatherDisplay:10.37,2013-01-31 18:10:00,
2013-01-31 10:20:00,37.9,34.1,30.24,ESE,112,0.0,0.0,86,0.00,CLR,,0.00,WeatherDisplay:10.37,2013-01-31 18:20:00,
2013-01-31 10:30:00,37.9,33.8,30.24,ESE,112,0.0,0.0,85,0.00,CLR,,0.00,WeatherDisplay:10.37,2013-01-31 18:30:00,
2013-01-31 10:40:00,37.9,33.8,30.25,ESE,123,1.0,5.0,85,0.00,CLR,,0.00,WeatherDisplay:10.37,2013-01-31 18:40:00,
2013-01-31 10:50:00,38.0,33.9,30.25,South,180,0.0,0.0,85,0.00,CLR,,0.00,WeatherDisplay:10.37,2013-01-31 18:50:00,
2013-01-31 11:00:00,38.3,34.2,30.25,South,180,0.0,0.0,85,0.00,CLR,,0.00,WeatherDisplay:10.37,2013-01-31 19:00:00,
2013-01-31 11:05:00,38.3,34.2,30.25,South,180,0.0,0.0,85,0.00,CLR,,0.00,WeatherDisplay:10.37,2013-01-31 19:05:00,
2013-01-31 11:10:00,38.5,34.4,30.24,South,180,0.0,0.0,85,0.00,CLR,,0.00,WeatherDisplay:10.37,2013-01-31 19:10:00,
2013-01-31 11:20:00,39.0,34.9,30.24,South,180,0.0,0.0,85,0.00,CLR,,0.00,WeatherDisplay:10.37,2013-01-31 19:20:00,
2013-01-31 11:30:00,39.4,35.2,30.24,South,180,0.0,0.0,85,0.00,CLR,,0.00,WeatherDisplay:10.37,2013-01-31 19:30:00,
2013-01-31 11:40:00,39.9,35.5,30.24,South,180,0.0,0.0,84,0.00,CLR,,0.00,WeatherDisplay:10.37,2013-01-31 19:40:00,
2013-01-31 11:50:00,39.9,35.5,30.23,South,180,0.0,0.0,84,0.00,CLR,,0.00,WeatherDisplay:10.37,2013-01-31 19:50:00,
2013-01-31 12:00:00,39.7,35.3,30.23,South,180,0.0,0.0,84,0.00,CLR,,0.00,WeatherDisplay:10.37,2013-01-31 20:00:00,
2013-01-31 12:10:00,39.7,35.0,30.23,South,180,0.0,0.0,83,0.00,CLR,,0.00,WeatherDisplay:10.37,2013-01-31 20:10:00,
2013-01-31 12:20:00,39.8,35.0,30.23,South,180,0.0,0.0,83,0.00,CLR,,0.00,WeatherDisplay:10.37,2013-01-31 20:20:00,
2013-01-31 12:30:00,39.9,35.2,30.23,South,180,0.0,0.0,83,0.00,CLR,,0.00,WeatherDisplay:10.37,2013-01-31 20:30:00,
2013-01-31 12:40:00,40.1,35.4,30.22,South,180,0.0,0.0,83,0.00,CLR,,0.00,WeatherDisplay:10.37,2013-01-31 20:40:00,
2013-01-31 12:50:00,40.3,35.5,30.22,South,180,0.0,0.0,83,0.00,CLR,,0.00,WeatherDisplay:10.37,2013-01-31 20:50:00,
2013-01-31 13:00:00,40.1,35.0,30.22,South,180,0.0,0.0,82,0.00,CLR,,0.00,WeatherDisplay:10.37,2013-01-31 21:00:00,
2013-01-31 13:05:00,40.1,35.0,30.22,South,180,0.0,0.0,82,0.00,CLR,,0.00,WeatherDisplay:10.37,2013-01-31 21:05:00,
2013-01-31 13:10:00,40.1,35.0,30.22,South,180,0.0,0.0,82,0.00,CLR,,0.00,WeatherDisplay:10.37,2013-01-31 21:10:00,
2013-01-31 13:20:00,40.3,35.2,30.22,South,180,0.0,0.0,82,0.00,CLR,,0.00,WeatherDisplay:10.37,2013-01-31 21:20:00,
2013-01-31 13:30:00,40.3,35.2,30.22,South,180,0.0,0.0,82,0.00,CLR,,0.00,WeatherDisplay:10.37,2013-01-31 21:30:00,
2013-01-31 13:40:00,40.3,34.9,30.22,South,180,0.0,0.0,81,0.00,CLR,,0.00,WeatherDisplay:10.37,2013-01-31 21:40:00,
2013-01-31 13:50:00,40.3,34.9,30.21,South,180,0.0,0.0,81,0.00,CLR,,0.00,WeatherDisplay:10.37,2013-01-31 21:50:00,
2013-01-31 13:55:00,40.3,34.9,30.21,South,180,0.0,0.0,81,0.00,CLR,,0.00,WeatherDisplay:10.37,2013-01-31 21:55:00,
2013-01-31 14:00:00,40.5,35.1,30.21,South,180,0.0,0.0,81,0.00,CLR,,0.00,WeatherDisplay:10.37,2013-01-31 22:00:00,
2013-01-31 14:05:00,40.6,35.2,30.21,South,180,0.0,0.0,81,0.00,CLR,,0.00,WeatherDisplay:10.37,2013-01-31 22:05:00,
2013-01-31 14:10:00,40.6,35.3,30.21,South,180,0.0,0.0,81,0.00,CLR,,0.00,WeatherDisplay:10.37,2013-01-31 22:10:00,
2013-01-31 14:20:00,40.6,35.2,30.21,South,180,0.0,0.0,81,0.00,CLR,,0.00,WeatherDisplay:10.37,2013-01-31 22:20:00,
2013-01-31 14:30:00,40.3,34.9,30.21,South,180,0.0,0.0,81,0.00,CLR,,0.00,WeatherDisplay:10.37,2013-01-31 22:30:00,
2013-01-31 14:40:00,40.1,34.4,30.21,South,180,0.0,0.0,80,0.00,CLR,,0.00,WeatherDisplay:10.37,2013-01-31 22:40:00,
2013-01-31 14:50:00,39.9,34.2,30.21,South,180,0.0,0.0,80,0.00,CLR,,0.00,WeatherDisplay:10.37,2013-01-31 22:50:00,
2013-01-31 15:00:00,39.7,34.1,30.21,South,180,0.0,0.0,80,0.00,CLR,,0.00,WeatherDisplay:10.37,2013-01-31 23:00:00,
2013-01-31 15:10:00,39.4,34.0,30.21,South,180,0.0,0.0,81,0.00,CLR,,0.00,WeatherDisplay:10.37,2013-01-31 23:10:00,
2013-01-31 15:20:00,39.4,34.0,30.21,South,180,0.0,0.0,81,0.00,CLR,,0.00,WeatherDisplay:10.37,2013-01-31 23:20:00,
2013-01-31 15:30:00,39.0,33.7,30.20,South,180,0.0,0.0,81,0.00,CLR,,0.00,WeatherDisplay:10.37,2013-01-31 23:30:00,
2013-01-31 15:40:00,38.8,33.5,30.21,South,180,0.0,0.0,81,0.00,CLR,,0.00,WeatherDisplay:10.37,2013-01-31 23:40:00,
2013-01-31 15:50:00,38.8,33.5,30.21,South,180,0.0,0.0,81,0.00,CLR,,0.00,WeatherDisplay:10.37,2013-01-31 23:50:00,
2013-01-31 16:00:00,38.5,33.2,30.21,South,180,0.0,0.0,81,0.00,CLR,,0.00,WeatherDisplay:10.37,2013-02-01 00:00:00,
2013-01-31 16:05:00,38.3,33.0,30.21,South,180,0.0,0.0,81,0.00,CLR,,0.00,WeatherDisplay:10.37,2013-02-01 00:05:00,
2013-01-31 16:10:00,38.1,32.8,30.21,South,180,0.0,0.0,81,0.00,CLR,,0.00,WeatherDisplay:10.37,2013-02-01 00:10:00,
2013-01-31 16:20:00,37.9,32.6,30.21,South,180,0.0,0.0,81,0.00,CLR,,0.00,WeatherDisplay:10.37,2013-02-01 00:20:00,
2013-01-31 16:30:00,37.6,32.3,30.20,South,180,0.0,0.0,81,0.00,CLR,,0.00,WeatherDisplay:10.37,2013-02-01 00:30:00,
2013-01-31 16:40:00,37.2,31.9,30.20,South,180,0.0,0.0,81,0.00,CLR,,0.00,WeatherDisplay:10.37,2013-02-01 00:40:00,
2013-01-31 16:50:00,37.2,31.9,30.20,South,180,0.0,0.0,81,0.02,RA,,0.02,WeatherDisplay:10.37,2013-02-01 00:50:00,
2013-01-31 16:55:00,37.0,31.8,30.20,South,180,0.0,0.0,81,0.00,RA,,0.02,WeatherDisplay:10.37,2013-02-01 00:55:00,
2013-01-31 17:00:00,36.9,31.6,30.20,South,180,0.0,0.0,81,0.00,RA,,0.02,WeatherDisplay:10.37,2013-02-01 01:00:00,
2013-01-31 17:10:00,36.7,31.7,30.19,South,180,0.0,0.0,82,0.00,RA,,0.02,WeatherDisplay:10.37,2013-02-01 01:10:00,
2013-01-31 17:20:00,36.5,31.5,30.19,South,180,0.0,0.0,82,0.00,RA,,0.02,WeatherDisplay:10.37,2013-02-01 01:20:00,
2013-01-31 17:30:00,36.3,31.4,30.19,South,180,0.0,0.0,82,0.00,RA,,0.02,WeatherDisplay:10.37,2013-02-01 01:30:00,
2013-01-31 17:40:00,36.3,31.7,30.19,South,180,0.0,0.0,83,0.00,RA,,0.02,WeatherDisplay:10.37,2013-02-01 01:40:00,
2013-01-31 17:50:00,36.3,31.7,30.19,South,180,0.0,0.0,83,0.00,RA,,0.02,WeatherDisplay:10.37,2013-02-01 01:50:00,
2013-01-31 18:00:00,36.3,31.7,30.19,South,180,0.0,0.0,83,0.00,RA,,0.02,WeatherDisplay:10.37,2013-02-01 02:00:00,
2013-01-31 18:05:00,36.1,31.5,30.19,South,180,0.0,0.0,83,0.00,RA,,0.02,WeatherDisplay:10.37,2013-02-01 02:05:00,
2013-01-31 18:10:00,36.1,31.5,30.19,South,180,0.0,0.0,83,0.00,RA,,0.02,WeatherDisplay:10.37,2013-02-01 02:10:00,
2013-01-31 18:20:00,36.3,31.7,30.19,South,180,0.0,0.0,83,0.00,RA,,0.02,WeatherDisplay:10.37,2013-02-01 02:20:00,
2013-01-31 18:30:00,36.3,31.9,30.19,South,180,0.0,0.0,84,0.00,RA,,0.02,WeatherDisplay:10.37,2013-02-01 02:30:00,
2013-01-31 18:40:00,36.3,31.9,30.19,South,180,0.0,0.0,84,0.00,RA,,0.02,WeatherDisplay:10.37,2013-02-01 02:40:00,
2013-01-31 18:50:00,36.3,31.9,30.19,South,180,0.0,0.0,84,0.00,RA,,0.02,WeatherDisplay:10.37,2013-02-01 02:50:00,
2013-01-31 18:55:00,36.5,32.1,30.19,South,180,0.0,0.0,84,0.00,RA,,0.02,WeatherDisplay:10.37,2013-02-01 02:55:00,
2013-01-31 19:05:00,36.5,32.1,30.18,South,180,0.0,0.0,84,0.00,RA,,0.02,WeatherDisplay:10.37,2013-02-01 03:05:00,
2013-01-31 19:10:00,36.5,32.1,30.18,South,180,0.0,0.0,84,0.00,RA,,0.02,WeatherDisplay:10.37,2013-02-01 03:10:00,
2013-01-31 19:20:00,36.7,32.3,30.19,South,180,0.0,0.0,84,0.00,RA,,0.02,WeatherDisplay:10.37,2013-02-01 03:20:00,
2013-01-31 19:30:00,36.7,32.3,30.18,South,180,0.0,0.0,84,0.00,RA,,0.02,WeatherDisplay:10.37,2013-02-01 03:30:00,
2013-01-31 19:40:00,36.9,32.5,30.18,South,180,1.0,2.0,84,0.00,RA,,0.02,WeatherDisplay:10.37,2013-02-01 03:40:00,
2013-01-31 19:50:00,37.0,32.6,30.17,South,180,0.0,0.0,84,0.00,RA,,0.02,WeatherDisplay:10.37,2013-02-01 03:50:00,
2013-01-31 20:00:00,37.0,32.7,30.17,South,180,0.0,0.0,84,0.00,RA,,0.02,WeatherDisplay:10.37,2013-02-01 04:00:00,
2013-01-31 20:05:00,36.9,32.5,30.17,South,180,0.0,0.0,84,0.00,RA,,0.02,WeatherDisplay:10.37,2013-02-01 04:05:00,
2013-01-31 20:10:00,36.9,32.5,30.17,South,180,0.0,0.0,84,0.00,RA,,0.02,WeatherDisplay:10.37,2013-02-01 04:10:00,
2013-01-31 20:15:00,36.9,32.5,30.17,South,180,0.0,0.0,84,0.00,RA,,0.02,WeatherDisplay:10.37,2013-02-01 04:15:00,
2013-01-31 20:20:00,36.9,32.5,30.17,South,180,0.0,0.0,84,0.00,RA,,0.02,WeatherDisplay:10.37,2013-02-01 04:20:00,
2013-01-31 20:30:00,36.9,32.5,30.17,South,180,0.0,0.0,84,0.00,RA,,0.02,WeatherDisplay:10.37,2013-02-01 04:30:00,
2013-01-31 20:40:00,36.9,32.5,30.16,South,180,0.0,0.0,84,0.00,RA,,0.02,WeatherDisplay:10.37,2013-02-01 04:40:00,
2013-01-31 20:50:00,36.9,32.5,30.17,South,180,0.0,0.0,84,0.00,RA,,0.02,WeatherDisplay:10.37,2013-02-01 04:50:00,
2013-01-31 21:00:00,36.7,32.3,30.17,South,180,0.0,0.0,84,0.00,RA,,0.02,WeatherDisplay:10.37,2013-02-01 05:00:00,
2013-01-31 21:05:00,36.8,32.4,30.17,South,180,0.0,0.0,84,0.00,RA,,0.02,WeatherDisplay:10.37,2013-02-01 05:05:00,
2013-01-31 21:10:00,36.9,32.5,30.17,South,180,0.0,0.0,84,0.00,RA,,0.02,WeatherDisplay:10.37,2013-02-01 05:10:00,
2013-01-31 21:20:00,36.7,32.3,30.16,South,180,0.0,0.0,84,0.00,RA,,0.02,WeatherDisplay:10.37,2013-02-01 05:20:00,
2013-01-31 21:25:00,36.7,32.3,30.16,South,180,0.0,0.0,84,0.00,RA,,0.02,WeatherDisplay:10.37,2013-02-01 05:25:00,
2013-01-31 21:30:00,36.7,32.3,30.16,South,180,0.0,0.0,84,0.00,RA,,0.02,WeatherDisplay:10.37,2013-02-01 05:30:00,
2013-01-31 21:35:00,36.7,32.3,30.16,South,180,0.0,0.0,84,0.00,RA,,0.02,WeatherDisplay:10.37,2013-02-01 05:35:00,
2013-01-31 21:40:00,36.7,32.3,30.16,South,180,0.0,0.0,84,0.00,RA,,0.02,WeatherDisplay:10.37,2013-02-01 05:40:00,
2013-01-31 21:45:00,36.7,32.3,30.16,South,180,0.0,0.0,84,0.00,RA,,0.02,WeatherDisplay:10.37,2013-02-01 05:45:00,
2013-01-31 21:50:00,36.7,32.3,30.16,South,180,0.0,0.0,84,0.00,RA,,0.02,WeatherDisplay:10.37,2013-02-01 05:50:00,
2013-01-31 22:00:00,36.5,32.1,30.16,South,180,0.0,0.0,84,0.00,RA,,0.02,WeatherDisplay:10.37,2013-02-01 06:00:00,
2013-01-31 22:05:00,36.5,32.1,30.16,South,180,0.0,0.0,84,0.00,RA,,0.02,WeatherDisplay:10.37,2013-02-01 06:05:00,
2013-01-31 22:10:00,36.3,31.9,30.16,South,180,0.0,0.0,84,0.00,RA,,0.02,WeatherDisplay:10.37,2013-02-01 06:10:00,
2013-01-31 22:20:00,36.3,31.9,30.16,South,180,0.0,0.0,84,0.00,RA,,0.02,WeatherDisplay:10.37,2013-02-01 06:20:00,
2013-01-31 22:30:00,36.3,31.9,30.16,South,180,0.0,0.0,84,0.00,RA,,0.02,WeatherDisplay:10.37,2013-02-01 06:30:00,
2013-01-31 22:40:00,36.1,31.8,30.16,South,180,0.0,0.0,84,0.00,RA,,0.02,WeatherDisplay:10.37,2013-02-01 06:40:00,
2013-01-31 22:50:00,36.1,31.8,30.17,South,180,0.0,0.0,84,0.00,RA,,0.02,WeatherDisplay:10.37,2013-02-01 06:50:00,
2013-01-31 22:55:00,36.1,31.8,30.17,South,180,0.0,0.0,84,0.00,RA,,0.02,WeatherDisplay:10.37,2013-02-01 06:55:00,
2013-01-31 23:05:00,36.1,31.7,30.16,South,180,0.0,0.0,84,0.00,RA,,0.02,WeatherDisplay:10.37,2013-02-01 07:05:00,
2013-01-31 23:10:00,36.0,31.9,30.16,South,180,0.0,0.0,85,0.00,RA,,0.02,WeatherDisplay:10.37,2013-02-01 07:10:00,
2013-01-31 23:20:00,35.8,31.8,30.16,South,180,0.0,0.0,85,0.00,RA,,0.02,WeatherDisplay:10.37,2013-02-01 07:20:00,
2013-01-31 23:25:00,35.8,31.7,30.17,South,180,0.0,0.0,85,0.00,RA,,0.02,WeatherDisplay:10.37,2013-02-01 07:25:00,
2013-01-31 23:30:00,35.8,31.7,30.17,South,180,0.0,0.0,85,0.00,RA,,0.02,WeatherDisplay:10.37,2013-02-01 07:30:00,
2013-01-31 23:40:00,35.8,31.7,30.18,South,180,0.0,0.0,85,0.00,RA,,0.02,WeatherDisplay:10.37,2013-02-01 07:40:00,
2013-01-31 23:50:00,35.8,31.7,30.18,South,180,0.0,0.0,85,0.00,RA,,0.02,WeatherDisplay:10.37,2013-02-01 07:50:00,